Terminal Aerodrome Forecast
Issued by NWS

Home | Current Version | Previous Version | Text Only | Print | Product List | Glossary On
Versions: 1 2 3 4 5 6 7 8 9 10 11 12 13
000
FTUS45 KRIW 052336
TAFLND
TAF
KLND 052336Z 0600/0624 VRB06KT P6SM VCSH SCT025 BKN050
     FM060300 03008KT 5SM -SHRA BR SCT008 OVC018
     FM060700 06009KT 4SM -SHRA BR SCT006 OVC015
     FM061500 VRB06KT 5SM -SHRA BR SCT009 OVC020=

USA.gov is the U.S. government's official web portal to all federal, state and local government web resources and services.